Terminal Aerodrome Forecast
Issued by NWS

Home | Current Version | Previous Version | Text Only | Print | Product List | Glossary On
Versions: 1 2 3 4 5 6 7 8 9 10 11 12 13 14
000
FTUS44 KLZK 272300
TAFLIT
TAF
KLIT 272336Z 2800/2824 23010KT P6SM VCSH SCT040 BKN150
     FM280700 34006KT P6SM SCT150
     FM281500 02007KT P6SM SKC
     FM282000 35011KT P6SM SCT050=

USA.gov is the U.S. government's official web portal to all federal, state and local government web resources and services.